TimeEDT,TemperatureF,Dew PointF,Humidity,Sea Level PressureIn,VisibilityMPH,Wind Direction,Wind SpeedMPH,Gust SpeedMPH,PrecipitationIn,Events,Conditions,WindDirDegrees,DateUTC
12:54 AM,66.9,46.0,47,29.94,10.0,West,6.9,-,N/A,,Clear,270,2013-06-16 04:54:00
1:54 AM,66.9,45.0,45,29.92,10.0,West,9.2,-,N/A,,Clear,270,2013-06-16 05:54:00
2:54 AM,64.0,45.0,50,29.93,10.0,WSW,6.9,-,N/A,,Partly Cloudy,250,2013-06-16 06:54:00
3:54 AM,64.0,45.0,50,29.93,10.0,WSW,6.9,-,N/A,,Partly Cloudy,250,2013-06-16 07:54:00
4:54 AM,62.1,44.1,52,29.92,10.0,West,6.9,-,N/A,,Scattered Clouds,260,2013-06-16 08:54:00
5:54 AM,63.0,44.1,50,29.94,10.0,WSW,8.1,-,N/A,,Mostly Cloudy,250,2013-06-16 09:54:00
6:54 AM,64.9,45.0,48,29.94,10.0,West,8.1,-,N/A,,Mostly Cloudy,270,2013-06-16 10:54:00
7:54 AM,68.0,45.0,43,29.94,10.0,West,8.1,-,N/A,,Mostly Cloudy,260,2013-06-16 11:54:00
8:54 AM,71.1,45.0,39,29.93,10.0,West,9.2,-,N/A,,Mostly Cloudy,280,2013-06-16 12:54:00
9:54 AM,73.9,46.9,38,29.91,10.0,West,8.1,-,N/A,,Mostly Cloudy,260,2013-06-16 13:54:00
10:54 AM,75.9,46.9,36,29.89,10.0,WSW,10.4,18.4,N/A,,Mostly Cloudy,250,2013-06-16 14:54:00
11:54 AM,75.0,48.0,38,29.88,10.0,SW,21.9,26.5,N/A,,Overcast,230,2013-06-16 15:54:00
12:54 PM,75.9,50.0,40,29.86,10.0,SSW,12.7,-,N/A,,Overcast,210,2013-06-16 16:54:00
1:54 PM,75.9,53.1,45,29.84,10.0,SSW,8.1,-,N/A,,Overcast,210,2013-06-16 17:54:00
2:54 PM,75.0,53.1,46,29.81,10.0,SSW,13.8,-,N/A,,Overcast,210,2013-06-16 18:54:00
3:54 PM,73.0,54.0,51,29.78,10.0,South,11.5,-,N/A,,Overcast,190,2013-06-16 19:54:00
4:54 PM,73.0,55.0,53,29.76,10.0,South,11.5,-,N/A,,Overcast,190,2013-06-16 20:54:00
5:54 PM,72.0,55.0,55,29.74,10.0,SSW,13.8,-,0.00,,Overcast,200,2013-06-16 21:54:00
6:54 PM,72.0,57.0,59,29.73,10.0,SSW,12.7,20.7,N/A,,Overcast,210,2013-06-16 22:54:00
7:54 PM,72.0,60.1,66,29.72,10.0,SSW,10.4,-,N/A,,Mostly Cloudy,210,2013-06-16 23:54:00
8:54 PM,71.1,61.0,70,29.72,10.0,SW,13.8,-,N/A,,Mostly Cloudy,220,2013-06-17 00:54:00
9:54 PM,70.0,61.0,73,29.74,10.0,SW,10.4,-,N/A,,Scattered Clouds,230,2013-06-17 01:54:00
10:54 PM,69.1,62.1,78,29.76,10.0,SW,6.9,-,N/A,,Scattered Clouds,230,2013-06-17 02:54:00
11:54 PM,71.1,60.1,68,29.78,10.0,West,10.4,-,N/A,,Scattered Clouds,270,2013-06-17 03:54:00